Tiburon, CA (94920)

5:01 AM PDT on August 24, 2016 (GMT -0700)
Tiburon - Gilmartin | | Change Station

Elev 482 ft 37.89 °N, 122.47 °W | Updated 12 minutes ago

Overcast
Overcast
54.7 °F
Feels Like 54.7 °F
N
6.0
Wind Variable Wind from SW
Gusts 11.0 mph

Today
High -- | Low -- °F
--% Chance of Precip.
Yesterday
High -- | Low -- °F
Precip. -- in
Pressure 30.08 in
Visibility 10.0 miles
Clouds Overcast 900 ft
Dew Point 54 °F
Humidity 98%
Rainfall 0.00 in
Snow Depth Not available.
6:33 AM 7:49 PM
Waning Gibbous, 57% visible
METAR KOAK 241153Z 30006KT 10SM OVC009 15/13 A3008 RMK AO2 SLP185 T01500128 10161 20150 56001
Pressure 30.08 in
Visibility 10.0 miles
Clouds Overcast 900 ft
Dew Point 54 °F
Humidity 98%
Rainfall 0.00 in
Snow Depth Not available.
6:33 AM 7:49 PM
Waning Gibbous, 57% visible
METAR KOAK 241153Z 30006KT 10SM OVC009 15/13 A3008 RMK AO2 SLP185 T01500128 10161 20150 56001

10-Day Weather Forecast

Almanac

Astronomy

Aug. 24, 2016 Rise Set
Actual Time
Civil Twilight
Nautical Twilight
Astronomical Twilight
Moon
Length of Visible Light
Length of Day
Tomorrow will be .
, % of the Moon is Illuminated

Today's Extremes

State Highs State Lows

Community

WunderPhotos

Upload Photos

1,934,572 photos uploaded!

WunderBlog® & News

Nearby

Air Quality

  Air Quality AQ Index Pollutant
Not available.

Snow Depth

Station Depth Elevation

Earthquake Activity

City Distance Mag. Time & Date
Minimum magnitude displayed is 2.5.

Coastal Water Temperatures

Place Temperature

Stations

Nearby Weather Stations

Station Location Temp. Windchill Dew Point Humidity Wind Precip. Elev Updated Type
                   

Watches & Warnings

There are currently no watches in effect.